createdAt,value
2017-05-10T00:00:14.408Z,0
2017-05-10T00:01:14.982Z,0
2017-05-10T00:02:14.626Z,0
2017-05-10T00:03:14.431Z,0
2017-05-10T00:04:15.297Z,0
2017-05-10T00:05:14.787Z,0
2017-05-10T00:06:14.808Z,0
2017-05-10T00:07:15.138Z,0
2017-05-10T00:08:14.858Z,0
2017-05-10T00:09:14.839Z,0
2017-05-10T00:10:21.318Z,0
2017-05-10T00:11:15.778Z,0
2017-05-10T00:12:15.599Z,0
2017-05-10T00:13:14.804Z,0
2017-05-10T00:14:15.324Z,0
2017-05-10T00:15:14.788Z,0
2017-05-10T00:16:15.408Z,0
2017-05-10T00:17:15.625Z,0
2017-05-10T00:18:15.893Z,0
2017-05-10T00:19:15.749Z,0
2017-05-10T00:20:14.872Z,0
2017-05-10T00:21:15.207Z,0
2017-05-10T00:22:15.221Z,0
2017-05-10T00:23:15.249Z,0
2017-05-10T00:24:15.541Z,0
2017-05-10T00:25:15.000Z,0
2017-05-10T00:26:15.857Z,0
2017-05-10T00:27:15.653Z,0
2017-05-10T00:28:15.373Z,0
2017-05-10T00:29:15.706Z,0
2017-05-10T00:30:15.417Z,0
2017-05-10T00:31:15.695Z,0
2017-05-10T00:32:15.218Z,0
2017-05-10T00:33:16.436Z,0
2017-05-10T00:34:15.526Z,0
2017-05-10T00:35:15.875Z,0
2017-05-10T00:36:15.877Z,0
2017-05-10T00:37:15.607Z,0
2017-05-10T00:38:15.879Z,0
2017-05-10T00:39:15.954Z,0
2017-05-10T00:40:15.916Z,0
2017-05-10T00:41:15.710Z,0
2017-05-10T00:42:15.423Z,0
2017-05-10T00:43:16.054Z,0
2017-05-10T00:44:16.396Z,0
2017-05-10T00:45:15.652Z,0
2017-05-10T00:46:15.513Z,0
2017-05-10T00:47:16.055Z,0
2017-05-10T00:48:16.476Z,0
2017-05-10T00:49:16.516Z,0
2017-05-10T00:50:16.270Z,0
2017-05-10T00:51:15.641Z,0
2017-05-10T00:52:16.238Z,0
2017-05-10T00:53:15.989Z,0
2017-05-10T00:54:16.707Z,0
2017-05-10T00:55:16.049Z,0
2017-05-10T00:56:15.908Z,0
2017-05-10T00:57:16.104Z,0
2017-05-10T00:58:16.423Z,0
2017-05-10T00:59:16.623Z,0
2017-05-10T01:00:15.867Z,0
2017-05-10T01:01:16.574Z,0
2017-05-10T01:02:15.915Z,0
2017-05-10T01:03:16.978Z,0
2017-05-10T01:04:16.282Z,0
2017-05-10T01:05:16.587Z,0
2017-05-10T01:06:16.934Z,0
2017-05-10T01:07:16.404Z,0
2017-05-10T01:08:16.556Z,0
2017-05-10T01:09:16.693Z,0
2017-05-10T01:10:16.137Z,0
2017-05-10T01:11:17.040Z,0
2017-05-10T01:12:16.771Z,0
2017-05-10T01:13:16.708Z,0
2017-05-10T01:14:16.217Z,0
2017-05-10T01:15:17.066Z,0
2017-05-10T01:16:16.257Z,0
2017-05-10T01:17:16.641Z,0
2017-05-10T01:18:17.214Z,0
2017-05-10T01:19:16.940Z,0
2017-05-10T01:20:17.140Z,0
2017-05-10T01:21:16.686Z,0
2017-05-10T01:22:17.161Z,0
2017-05-10T01:23:16.739Z,0
2017-05-10T01:24:17.110Z,0
2017-05-10T01:25:16.785Z,0
2017-05-10T01:26:17.112Z,0
2017-05-10T01:27:17.134Z,0
2017-05-10T01:28:17.303Z,0
2017-05-10T01:29:18.174Z,0
2017-05-10T01:30:16.608Z,0
2017-05-10T01:31:16.927Z,0
2017-05-10T01:32:17.258Z,0
2017-05-10T01:33:17.305Z,0
2017-05-10T01:34:17.613Z,0
2017-05-10T01:35:17.101Z,0
2017-05-10T01:36:18.024Z,0
2017-05-10T01:37:17.089Z,0
2017-05-10T01:38:16.886Z,0
2017-05-10T01:39:17.435Z,0
2017-05-10T01:40:16.881Z,0
2017-05-10T01:41:17.746Z,0
2017-05-10T01:42:17.200Z,0
2017-05-10T01:43:17.507Z,0
2017-05-10T01:44:16.965Z,0
2017-05-10T01:45:16.966Z,0
2017-05-10T01:46:17.302Z,0
2017-05-10T01:47:18.229Z,0
2017-05-10T01:48:17.358Z,0
2017-05-10T01:49:17.892Z,0
2017-05-10T01:50:17.820Z,0
2017-05-10T01:51:17.416Z,0
2017-05-10T01:52:17.271Z,0
2017-05-10T01:53:17.473Z,0
2017-05-10T01:54:18.098Z,0
2017-05-10T01:55:17.388Z,0
2017-05-10T01:56:17.540Z,0
2017-05-10T01:57:17.723Z,0
2017-05-10T01:58:17.934Z,0
2017-05-10T01:59:18.027Z,0
2017-05-10T02:00:18.273Z,0
2017-05-10T02:01:17.368Z,0
2017-05-10T02:02:17.829Z,0
2017-05-10T02:03:18.009Z,0
2017-05-10T02:04:18.616Z,0
2017-05-10T02:05:17.762Z,0
2017-05-10T02:06:18.549Z,0
2017-05-10T02:07:18.115Z,0
2017-05-10T02:08:18.757Z,0
2017-05-10T02:09:18.765Z,0
2017-05-10T02:10:17.596Z,0
2017-05-10T02:11:18.539Z,0
2017-05-10T02:12:17.926Z,0
2017-05-10T02:13:17.953Z,0
2017-05-10T02:14:18.584Z,0
2017-05-10T02:15:18.061Z,0
2017-05-10T02:16:18.219Z,0
2017-05-10T02:17:17.750Z,0
2017-05-10T02:18:19.076Z,0
2017-05-10T02:19:17.795Z,0
2017-05-10T02:20:18.496Z,0
2017-05-10T02:21:18.450Z,0
2017-05-10T02:22:18.474Z,0
2017-05-10T02:23:18.694Z,0
2017-05-10T02:24:18.516Z,0
2017-05-10T02:25:18.652Z,0
2017-05-10T02:26:17.965Z,0
2017-05-10T02:27:19.203Z,0
2017-05-10T02:28:18.976Z,0
2017-05-10T02:29:18.373Z,0
2017-05-10T02:30:18.261Z,0
2017-05-10T02:31:18.446Z,0
2017-05-10T02:32:18.637Z,0
2017-05-10T02:33:18.732Z,0
2017-05-10T02:34:18.478Z,0
2017-05-10T02:35:18.786Z,0
2017-05-10T02:36:18.781Z,0
2017-05-10T02:37:18.844Z,0
2017-05-10T02:38:19.221Z,0
2017-05-10T02:39:18.786Z,0
2017-05-10T02:40:18.608Z,0
2017-05-10T02:41:18.799Z,0
2017-05-10T02:42:18.960Z,0
2017-05-10T02:43:18.979Z,0
2017-05-10T02:44:19.020Z,0
2017-05-10T02:45:18.737Z,0
2017-05-10T02:46:18.739Z,0
2017-05-10T02:47:18.772Z,0
2017-05-10T02:48:18.507Z,0
2017-05-10T02:49:19.424Z,0
2017-05-10T02:50:19.204Z,0
2017-05-10T02:51:18.769Z,0
2017-05-10T02:52:18.891Z,0
2017-05-10T02:53:19.273Z,0
2017-05-10T02:54:19.237Z,0
2017-05-10T02:55:18.884Z,0
2017-05-10T02:56:19.285Z,0
2017-05-10T02:57:18.716Z,0
2017-05-10T02:58:18.931Z,0
2017-05-10T02:59:18.758Z,0
2017-05-10T03:00:19.200Z,0
2017-05-10T03:01:19.415Z,0
2017-05-10T03:02:19.536Z,0
2017-05-10T03:03:19.465Z,0
2017-05-10T03:04:19.179Z,0
2017-05-10T03:05:19.202Z,0
2017-05-10T03:06:19.119Z,0
2017-05-10T03:07:19.005Z,0
2017-05-10T03:08:19.765Z,0
2017-05-10T03:09:19.299Z,0
2017-05-10T03:10:19.316Z,0
2017-05-10T03:11:19.052Z,0
2017-05-10T03:12:19.143Z,0
2017-05-10T03:13:19.721Z,0
2017-05-10T03:14:19.729Z,0
2017-05-10T03:15:19.593Z,0
2017-05-10T03:16:19.165Z,0
2017-05-10T03:17:19.481Z,0
2017-05-10T03:18:19.598Z,0
2017-05-10T03:19:19.560Z,0
2017-05-10T03:20:19.257Z,0
2017-05-10T03:21:19.458Z,0
2017-05-10T03:22:20.537Z,0
2017-05-10T03:23:19.633Z,0
2017-05-10T03:24:19.484Z,0
2017-05-10T03:25:19.383Z,0
2017-05-10T03:26:19.404Z,0
2017-05-10T03:27:19.581Z,0
2017-05-10T03:28:20.051Z,0
2017-05-10T03:29:19.789Z,0
2017-05-10T03:30:19.800Z,0
2017-05-10T03:31:19.819Z,0
2017-05-10T03:32:19.894Z,0
2017-05-10T03:33:20.191Z,0
2017-05-10T03:34:20.195Z,0
2017-05-10T03:35:20.395Z,0
2017-05-10T03:36:20.240Z,0
2017-05-10T03:37:21.265Z,0
2017-05-10T03:38:19.984Z,0
2017-05-10T03:39:20.324Z,0
2017-05-10T03:40:20.057Z,0
2017-05-10T03:41:20.456Z,0
2017-05-10T03:42:19.925Z,0
2017-05-10T03:43:20.119Z,0
2017-05-10T03:44:20.767Z,0
2017-05-10T03:45:20.157Z,0
2017-05-10T03:46:20.273Z,0
2017-05-10T03:47:20.507Z,0
2017-05-10T03:48:20.826Z,0
2017-05-10T03:49:21.460Z,0
2017-05-10T03:50:19.970Z,0
2017-05-10T03:51:20.658Z,0
2017-05-10T03:52:20.371Z,0
2017-05-10T03:53:20.338Z,0
2017-05-10T03:54:20.072Z,0
2017-05-10T03:55:20.391Z,0
2017-05-10T03:56:20.617Z,0
2017-05-10T03:57:20.733Z,0
2017-05-10T03:58:21.008Z,0
2017-05-10T03:59:20.184Z,0
2017-05-10T04:00:20.959Z,0
2017-05-10T04:01:20.535Z,0
2017-05-10T04:02:20.903Z,0
2017-05-10T04:03:20.444Z,0
2017-05-10T04:04:20.303Z,0
2017-05-10T04:05:20.575Z,0
2017-05-10T04:06:20.405Z,0
2017-05-10T04:07:21.738Z,0
2017-05-10T04:08:20.713Z,0
2017-05-10T04:09:21.053Z,0
2017-05-10T04:10:20.679Z,0
2017-05-10T04:11:20.769Z,0
2017-05-10T04:12:21.077Z,0
2017-05-10T04:13:20.822Z,0
2017-05-10T04:14:21.341Z,0
2017-05-10T04:15:20.563Z,0
2017-05-10T04:16:20.588Z,0
2017-05-10T04:17:21.254Z,0
2017-05-10T04:18:21.241Z,0
2017-05-10T04:19:20.665Z,0
2017-05-10T04:20:20.901Z,0
2017-05-10T04:21:21.310Z,0
2017-05-10T04:22:21.135Z,0
2017-05-10T04:23:21.362Z,0
2017-05-10T04:24:21.838Z,0
2017-05-10T04:25:20.971Z,0
2017-05-10T04:26:21.123Z,0
2017-05-10T04:27:21.296Z,0
2017-05-10T04:28:21.414Z,0
2017-05-10T04:29:21.522Z,0
2017-05-10T04:30:21.266Z,0
2017-05-10T04:31:21.250Z,0
2017-05-10T04:32:21.487Z,0
2017-05-10T04:33:20.992Z,0
2017-05-10T04:34:22.694Z,0
2017-05-10T04:35:21.341Z,0
2017-05-10T04:36:21.660Z,0
2017-05-10T04:37:21.388Z,0
2017-05-10T04:38:21.425Z,0
2017-05-10T04:39:22.031Z,0
2017-05-10T04:40:21.771Z,0
2017-05-10T04:41:21.686Z,0
2017-05-10T04:42:21.553Z,0
2017-05-10T04:43:21.253Z,0
2017-05-10T04:44:21.547Z,0
2017-05-10T04:45:21.580Z,0
2017-05-10T04:46:21.314Z,0
2017-05-10T04:47:21.323Z,0
2017-05-10T04:48:21.660Z,0
2017-05-10T04:49:22.105Z,0
2017-05-10T04:50:21.437Z,0
2017-05-10T04:51:22.016Z,0
2017-05-10T04:52:22.056Z,0
2017-05-10T04:53:22.108Z,0
2017-05-10T04:54:22.054Z,0
2017-05-10T04:55:21.517Z,0
2017-05-10T04:56:22.555Z,0
2017-05-10T04:57:21.558Z,0
2017-05-10T04:58:21.895Z,0
2017-05-10T04:59:22.306Z,0
2017-05-10T05:00:21.953Z,0
2017-05-10T05:01:21.658Z,0
2017-05-10T05:02:21.681Z,0
2017-05-10T05:03:21.826Z,0
2017-05-10T05:04:22.050Z,0
2017-05-10T05:05:22.051Z,0
2017-05-10T05:06:21.840Z,0
2017-05-10T05:07:21.809Z,0
2017-05-10T05:08:22.179Z,0
2017-05-10T05:09:21.857Z,0
2017-05-10T05:10:22.491Z,0
2017-05-10T05:11:22.196Z,0
2017-05-10T05:12:21.925Z,0
2017-05-10T05:13:22.249Z,0
2017-05-10T05:14:22.574Z,0
2017-05-10T05:15:22.307Z,0
2017-05-10T05:16:22.314Z,0
2017-05-10T05:17:22.994Z,0
2017-05-10T05:18:22.724Z,0
2017-05-10T05:19:22.411Z,0
2017-05-10T05:20:22.421Z,0
2017-05-10T05:21:22.455Z,0
2017-05-10T05:22:22.465Z,0
2017-05-10T05:23:23.152Z,0
2017-05-10T05:24:22.511Z,5
2017-05-10T05:25:22.327Z,5
2017-05-10T05:26:22.592Z,5
2017-05-10T05:27:22.329Z,5
2017-05-10T05:28:22.604Z,5
2017-05-10T05:29:23.238Z,5
2017-05-10T05:30:22.710Z,5
2017-05-10T05:31:22.981Z,5
2017-05-10T05:32:22.399Z,5
2017-05-10T05:33:22.728Z,5
2017-05-10T05:34:22.841Z,5
2017-05-10T05:35:22.768Z,5
2017-05-10T05:36:22.500Z,5
2017-05-10T05:37:23.125Z,5
2017-05-10T05:38:22.849Z,5
2017-05-10T05:39:22.688Z,5
2017-05-10T05:40:23.193Z,5
2017-05-10T05:41:22.628Z,5
2017-05-10T05:42:22.642Z,5
2017-05-10T05:43:22.975Z,5
2017-05-10T05:44:23.606Z,5
2017-05-10T05:45:23.027Z,5
2017-05-10T05:46:23.341Z,5
2017-05-10T05:47:23.076Z,5
2017-05-10T05:48:23.100Z,5
2017-05-10T05:49:22.819Z,5
2017-05-10T05:50:23.082Z,5
2017-05-10T05:51:22.861Z,5
2017-05-10T05:52:22.888Z,5
2017-05-10T05:53:23.824Z,5
2017-05-10T05:54:23.764Z,5
2017-05-10T05:55:23.560Z,5
2017-05-10T05:56:23.279Z,5
2017-05-10T05:57:23.023Z,5
2017-05-10T05:58:23.346Z,5
2017-05-10T05:59:23.672Z,5
2017-05-10T06:00:23.684Z,5
2017-05-10T06:01:23.716Z,5
2017-05-10T06:02:23.131Z,5
2017-05-10T06:03:23.780Z,5
2017-05-10T06:04:23.483Z,5
2017-05-10T06:05:23.513Z,5
2017-05-10T06:06:23.279Z,5
2017-05-10T06:07:23.557Z,5
2017-05-10T06:08:24.180Z,5
2017-05-10T06:09:23.619Z,5
2017-05-10T06:10:23.338Z,5
2017-05-10T06:11:23.660Z,5
2017-05-10T06:12:23.671Z,5
2017-05-10T06:13:24.316Z,5
2017-05-10T06:14:23.781Z,5
2017-05-10T06:15:23.799Z,5
2017-05-10T06:16:23.786Z,5
2017-05-10T06:17:23.767Z,5
2017-05-10T06:18:24.129Z,5
2017-05-10T06:19:23.554Z,5
2017-05-10T06:20:23.570Z,5
2017-05-10T06:21:23.907Z,5
2017-05-10T06:22:24.251Z,5
2017-05-10T06:23:24.271Z,5
2017-05-10T06:24:23.721Z,5
2017-05-10T06:25:23.992Z,5
2017-05-10T06:26:23.718Z,5
2017-05-10T06:27:24.047Z,5
2017-05-10T06:28:23.771Z,5
2017-05-10T06:29:24.091Z,5
2017-05-10T06:30:24.119Z,5
2017-05-10T06:31:24.067Z,5
2017-05-10T06:32:24.211Z,5
2017-05-10T06:33:24.797Z,5
2017-05-10T06:34:24.530Z,5
2017-05-10T06:35:24.560Z,5
2017-05-10T06:36:24.262Z,5
2017-05-10T06:37:24.601Z,5
2017-05-10T06:38:24.624Z,5
2017-05-10T06:39:24.641Z,5
2017-05-10T06:40:24.358Z,5
2017-05-10T06:41:24.094Z,5
2017-05-10T06:42:24.162Z,5
2017-05-10T06:43:25.367Z,5
2017-05-10T06:44:24.775Z,5
2017-05-10T06:45:24.497Z,5
2017-05-10T06:46:24.519Z,5
2017-05-10T06:47:24.234Z,10
2017-05-10T06:48:24.871Z,10
2017-05-10T06:49:24.886Z,10
2017-05-10T06:50:24.926Z,10
2017-05-10T06:51:24.934Z,10
2017-05-10T06:52:24.958Z,5
2017-05-10T06:53:24.978Z,5
2017-05-10T06:54:24.416Z,10
2017-05-10T06:55:24.703Z,10
2017-05-10T06:56:24.754Z,10
2017-05-10T06:57:24.786Z,10
2017-05-10T06:58:24.862Z,10
2017-05-10T06:59:25.448Z,10
2017-05-10T07:00:24.788Z,10
2017-05-10T07:01:24.584Z,10
2017-05-10T07:02:24.610Z,10
2017-05-10T07:03:24.943Z,10
2017-05-10T07:04:24.975Z,10
2017-05-10T07:05:24.670Z,10
2017-05-10T07:06:25.013Z,10
2017-05-10T07:07:25.642Z,10
2017-05-10T07:08:25.651Z,10
2017-05-10T07:09:25.705Z,10
2017-05-10T07:10:24.809Z,10
2017-05-10T07:11:25.422Z,10
2017-05-10T07:12:25.464Z,10
2017-05-10T07:13:24.885Z,10
2017-05-10T07:14:25.716Z,10
2017-05-10T07:15:26.210Z,10
2017-05-10T07:16:25.624Z,10
2017-05-10T07:17:25.581Z,10
2017-05-10T07:18:24.995Z,10
2017-05-10T07:19:25.028Z,10
2017-05-10T07:20:25.073Z,10
2017-05-10T07:21:25.243Z,10
2017-05-10T07:22:26.072Z,10
2017-05-10T07:23:25.740Z,10
2017-05-10T07:24:25.155Z,10
2017-05-10T07:25:25.178Z,10
2017-05-10T07:26:25.507Z,10
2017-05-10T07:27:25.530Z,10
2017-05-10T07:28:25.245Z,10
2017-05-10T07:29:25.928Z,10
2017-05-10T07:30:26.201Z,10
2017-05-10T07:31:25.377Z,10
2017-05-10T07:32:25.357Z,10
2017-05-10T07:33:26.022Z,10
2017-05-10T07:34:25.398Z,10
2017-05-10T07:35:25.716Z,10
2017-05-10T07:36:25.747Z,10
2017-05-10T07:37:25.793Z,10
2017-05-10T07:38:25.503Z,10
2017-05-10T07:39:26.422Z,10
2017-05-10T07:40:25.548Z,10
2017-05-10T07:41:25.867Z,10
2017-05-10T07:42:26.225Z,10
2017-05-10T07:43:26.100Z,10
2017-05-10T07:44:25.653Z,10
2017-05-10T07:45:25.979Z,10
2017-05-10T07:46:26.361Z,10
2017-05-10T07:47:25.735Z,10
2017-05-10T07:48:25.748Z,10
2017-05-10T07:49:26.221Z,10
2017-05-10T07:50:26.400Z,10
2017-05-10T07:51:26.432Z,15
2017-05-10T07:52:26.465Z,15
2017-05-10T07:53:26.471Z,15
2017-05-10T07:54:26.193Z,15
2017-05-10T07:55:26.230Z,15
2017-05-10T07:56:26.254Z,15
2017-05-10T07:57:25.983Z,15
2017-05-10T07:58:25.996Z,15
2017-05-10T07:59:26.026Z,15
2017-05-10T08:00:26.044Z,15
2017-05-10T08:01:26.388Z,15
2017-05-10T08:02:26.099Z,15
2017-05-10T08:03:26.133Z,15
2017-05-10T08:04:26.449Z,15
2017-05-10T08:05:26.586Z,15
2017-05-10T08:06:26.236Z,15
2017-05-10T08:07:26.562Z,15
2017-05-10T08:08:27.164Z,15
2017-05-10T08:09:27.174Z,15
2017-05-10T08:10:26.610Z,15
2017-05-10T08:11:26.633Z,15
2017-05-10T08:12:26.358Z,15
2017-05-10T08:13:26.395Z,15
2017-05-10T08:14:26.710Z,15
2017-05-10T08:15:27.028Z,15
2017-05-10T08:16:26.749Z,15
2017-05-10T08:17:26.795Z,15
2017-05-10T08:18:26.501Z,15
2017-05-10T08:19:27.205Z,15
2017-05-10T08:20:26.907Z,15
2017-05-10T08:21:27.197Z,15
2017-05-10T08:22:26.914Z,15
2017-05-10T08:23:26.935Z,15
2017-05-10T08:24:26.965Z,15
2017-05-10T08:25:26.987Z,15
2017-05-10T08:26:27.023Z,15
2017-05-10T08:27:27.035Z,15
2017-05-10T08:28:27.075Z,15
2017-05-10T08:29:27.404Z,15
2017-05-10T08:30:27.116Z,15
2017-05-10T08:31:26.888Z,15
2017-05-10T08:32:26.864Z,15
2017-05-10T08:33:27.567Z,15
2017-05-10T08:34:26.927Z,15
2017-05-10T08:35:27.562Z,15
2017-05-10T08:36:26.973Z,15
2017-05-10T08:37:27.379Z,15
2017-05-10T08:38:27.312Z,15
2017-05-10T08:39:27.400Z,15
2017-05-10T08:40:27.601Z,15
2017-05-10T08:41:27.418Z,15
2017-05-10T08:42:27.724Z,15
2017-05-10T08:43:28.345Z,15
2017-05-10T08:44:28.081Z,15
2017-05-10T08:45:27.606Z,15
2017-05-10T08:46:27.228Z,20
2017-05-10T08:47:27.874Z,20
2017-05-10T08:48:27.620Z,15
2017-05-10T08:49:28.511Z,15
2017-05-10T08:50:27.924Z,15
2017-05-10T08:51:28.563Z,15
2017-05-10T08:52:27.689Z,15
2017-05-10T08:53:28.006Z,15
2017-05-10T08:54:27.743Z,15
2017-05-10T08:55:27.503Z,15
2017-05-10T08:56:27.786Z,15
2017-05-10T08:57:27.808Z,15
2017-05-10T08:58:27.729Z,15
2017-05-10T08:59:28.171Z,15
2017-05-10T09:00:28.489Z,15
2017-05-10T09:01:27.932Z,15
2017-05-10T09:02:27.932Z,15
2017-05-10T09:03:27.665Z,20
2017-05-10T09:04:28.004Z,20
2017-05-10T09:05:28.016Z,20
2017-05-10T09:06:28.043Z,20
2017-05-10T09:07:27.766Z,20
2017-05-10T09:08:28.091Z,20
2017-05-10T09:09:28.727Z,20
2017-05-10T09:10:28.424Z,20
2017-05-10T09:11:28.183Z,20
2017-05-10T09:12:27.906Z,20
2017-05-10T09:13:28.290Z,20
2017-05-10T09:14:27.947Z,20
2017-05-10T09:15:28.282Z,20
2017-05-10T09:16:28.309Z,20
2017-05-10T09:17:28.631Z,20
2017-05-10T09:18:28.361Z,20
2017-05-10T09:19:28.683Z,20
2017-05-10T09:20:29.012Z,20
2017-05-10T09:21:28.738Z,20
2017-05-10T09:22:29.091Z,20
2017-05-10T09:23:29.099Z,20
2017-05-10T09:24:28.808Z,20
2017-05-10T09:25:28.536Z,20
2017-05-10T09:26:28.270Z,20
2017-05-10T09:27:28.288Z,20
2017-05-10T09:28:28.957Z,20
2017-05-10T09:29:29.567Z,20
2017-05-10T09:30:28.966Z,20
2017-05-10T09:31:28.700Z,20
2017-05-10T09:32:28.784Z,20
2017-05-10T09:33:28.761Z,20
2017-05-10T09:34:29.383Z,20
2017-05-10T09:35:28.684Z,20
2017-05-10T09:36:28.528Z,20
2017-05-10T09:37:28.865Z,25
2017-05-10T09:38:28.881Z,25
2017-05-10T09:39:29.512Z,25
2017-05-10T09:40:29.249Z,25
2017-05-10T09:41:28.982Z,25
2017-05-10T09:42:29.294Z,25
2017-05-10T09:43:29.320Z,25
2017-05-10T09:44:29.088Z,25
2017-05-10T09:45:29.064Z,30
2017-05-10T09:46:29.397Z,30
2017-05-10T09:47:29.169Z,35
2017-05-10T09:48:29.151Z,45
2017-05-10T09:49:29.526Z,55
2017-05-10T09:50:29.511Z,80
2017-05-10T09:51:29.239Z,110
2017-05-10T09:52:29.826Z,130
2017-05-10T09:53:29.291Z,140
2017-05-10T09:54:29.003Z,145
2017-05-10T09:55:29.038Z,145
2017-05-10T09:56:29.079Z,155
2017-05-10T09:57:29.397Z,150
2017-05-10T09:58:29.466Z,155
2017-05-10T09:59:29.457Z,165
2017-05-10T10:00:29.487Z,195
2017-05-10T10:01:29.532Z,220
2017-05-10T10:02:29.547Z,245
2017-05-10T10:03:29.574Z,255
2017-05-10T10:04:29.897Z,260
2017-05-10T10:05:29.926Z,245
2017-05-10T10:06:29.404Z,240
2017-05-10T10:07:29.686Z,235
2017-05-10T10:08:29.724Z,225
2017-05-10T10:09:30.110Z,180
2017-05-10T10:10:30.081Z,135
2017-05-10T10:11:29.515Z,130
2017-05-10T10:12:29.844Z,135
2017-05-10T10:13:29.726Z,135
2017-05-10T10:14:29.966Z,140
2017-05-10T10:15:29.642Z,140
2017-05-10T10:16:29.972Z,145
2017-05-10T10:17:30.010Z,145
2017-05-10T10:18:30.077Z,150
2017-05-10T10:19:30.364Z,150
2017-05-10T10:20:30.399Z,150
2017-05-10T10:21:29.836Z,150
2017-05-10T10:22:30.459Z,155
2017-05-10T10:23:29.980Z,155
2017-05-10T10:24:29.927Z,155
2017-05-10T10:25:30.554Z,160
2017-05-10T10:26:30.031Z,160
2017-05-10T10:27:30.687Z,165
2017-05-10T10:28:30.357Z,175
2017-05-10T10:29:30.396Z,180
2017-05-10T10:30:30.434Z,190
2017-05-10T10:31:30.147Z,195
2017-05-10T10:32:30.191Z,200
2017-05-10T10:33:30.395Z,205
2017-05-10T10:34:30.726Z,210
2017-05-10T10:35:30.597Z,210
2017-05-10T10:36:30.631Z,210
2017-05-10T10:37:30.678Z,205
2017-05-10T10:38:30.677Z,205
2017-05-10T10:39:30.760Z,200
2017-05-10T10:40:30.745Z,200
2017-05-10T10:41:30.781Z,195
2017-05-10T10:42:30.822Z,195
2017-05-10T10:43:30.852Z,190
2017-05-10T10:44:30.876Z,180
2017-05-10T10:45:30.908Z,175
2017-05-10T10:46:31.566Z,170
2017-05-10T10:47:31.345Z,165
2017-05-10T10:48:31.011Z,165
2017-05-10T10:49:31.645Z,160
2017-05-10T10:50:30.781Z,155
2017-05-10T10:51:30.832Z,150
2017-05-10T10:52:30.841Z,140
2017-05-10T10:53:31.473Z,135
2017-05-10T10:54:31.262Z,125
2017-05-10T10:55:31.781Z,120
2017-05-10T10:56:31.288Z,110
2017-05-10T10:57:31.310Z,110
2017-05-10T10:58:31.037Z,100
2017-05-10T10:59:31.369Z,95
2017-05-10T11:00:31.713Z,90
2017-05-10T11:01:31.747Z,85
2017-05-10T11:02:31.478Z,80
2017-05-10T11:03:31.510Z,80
2017-05-10T11:04:31.843Z,75
2017-05-10T11:05:31.567Z,75
2017-05-10T11:06:31.303Z,70
2017-05-10T11:07:31.657Z,70
2017-05-10T11:08:31.669Z,70
2017-05-10T11:09:31.731Z,70
2017-05-10T11:10:31.452Z,70
2017-05-10T11:11:31.489Z,70
2017-05-10T11:12:31.799Z,70
2017-05-10T11:13:31.878Z,70
2017-05-10T11:14:32.191Z,70
2017-05-10T11:15:31.889Z,65
2017-05-10T11:16:32.523Z,65
2017-05-10T11:17:32.427Z,65
2017-05-10T11:18:31.682Z,65
2017-05-10T11:19:32.015Z,65
2017-05-10T11:20:32.057Z,65
2017-05-10T11:21:32.084Z,65
2017-05-10T11:22:31.804Z,65
2017-05-10T11:23:31.838Z,65
2017-05-10T11:24:32.170Z,65
2017-05-10T11:25:31.905Z,65
2017-05-10T11:26:32.227Z,65
2017-05-10T11:27:31.967Z,65
2017-05-10T11:28:32.300Z,65
2017-05-10T11:29:32.380Z,60
2017-05-10T11:30:32.672Z,60
2017-05-10T11:31:32.104Z,60
2017-05-10T11:32:33.032Z,60
2017-05-10T11:33:32.139Z,60
2017-05-10T11:34:32.771Z,60
2017-05-10T11:35:32.511Z,60
2017-05-10T11:36:32.539Z,60
2017-05-10T11:37:32.567Z,60
2017-05-10T11:38:32.601Z,60
2017-05-10T11:39:33.039Z,60
2017-05-10T11:40:32.658Z,60
2017-05-10T11:41:32.414Z,60
2017-05-10T11:42:33.019Z,60
2017-05-10T11:43:32.441Z,55
2017-05-10T11:44:32.682Z,55
2017-05-10T11:45:32.501Z,55
2017-05-10T11:46:33.461Z,55
2017-05-10T11:47:33.173Z,55
2017-05-10T11:48:32.935Z,55
2017-05-10T11:49:32.625Z,55
2017-05-10T11:50:32.967Z,55
2017-05-10T11:51:32.994Z,55
2017-05-10T11:52:32.704Z,55
2017-05-10T11:53:33.917Z,55
2017-05-10T11:54:33.372Z,50
2017-05-10T11:55:33.394Z,50
2017-05-10T11:56:33.739Z,50
2017-05-10T11:57:33.463Z,50
2017-05-10T11:58:33.786Z,50
2017-05-10T11:59:33.644Z,50
2017-05-10T12:00:34.153Z,50
2017-05-10T12:01:33.858Z,50
2017-05-10T12:02:33.914Z,50
2017-05-10T12:03:33.636Z,50
2017-05-10T12:04:33.666Z,50
2017-05-10T12:05:33.396Z,50
2017-05-10T12:06:33.726Z,55
2017-05-10T12:07:33.156Z,55
2017-05-10T12:08:33.477Z,55
2017-05-10T12:09:33.213Z,55
2017-05-10T12:10:33.284Z,55
2017-05-10T12:11:33.892Z,55
2017-05-10T12:12:33.307Z,55
2017-05-10T12:13:33.635Z,55
2017-05-10T12:14:34.320Z,55
2017-05-10T12:15:33.693Z,55
2017-05-10T12:16:34.020Z,55
2017-05-10T12:17:34.041Z,55
2017-05-10T12:18:33.776Z,55
2017-05-10T12:19:34.410Z,55
2017-05-10T12:20:33.543Z,55
2017-05-10T12:21:34.473Z,55
2017-05-10T12:22:34.195Z,55
2017-05-10T12:23:34.372Z,55
2017-05-10T12:24:33.648Z,55
2017-05-10T12:25:34.278Z,50
2017-05-10T12:26:34.018Z,50
2017-05-10T12:27:33.736Z,50
2017-05-10T12:28:33.769Z,50
2017-05-10T12:29:35.009Z,50
2017-05-10T12:30:33.825Z,50
2017-05-10T12:31:33.875Z,50
2017-05-10T12:32:34.182Z,50
2017-05-10T12:33:34.577Z,50
2017-05-10T12:34:34.256Z,50
2017-05-10T12:35:33.975Z,45
2017-05-10T12:36:34.297Z,45
2017-05-10T12:37:34.138Z,45
2017-05-10T12:38:34.375Z,45
2017-05-10T12:39:34.396Z,45
2017-05-10T12:40:34.733Z,45
2017-05-10T12:41:34.475Z,45
2017-05-10T12:42:34.492Z,45
2017-05-10T12:43:34.294Z,45
2017-05-10T12:44:34.431Z,45
2017-05-10T12:45:34.274Z,40
2017-05-10T12:46:34.598Z,40
2017-05-10T12:47:34.649Z,40
2017-05-10T12:48:34.681Z,40
2017-05-10T12:49:35.049Z,40
2017-05-10T12:50:34.416Z,40
2017-05-10T12:51:35.243Z,40
2017-05-10T12:52:34.775Z,40
2017-05-10T12:53:34.511Z,40
2017-05-10T12:54:34.535Z,40
2017-05-10T12:55:34.562Z,40
2017-05-10T12:56:35.205Z,40
2017-05-10T12:57:34.644Z,40
2017-05-10T12:58:34.699Z,40
2017-05-10T12:59:34.988Z,40
2017-05-10T13:00:34.729Z,40
2017-05-10T13:01:35.339Z,40
2017-05-10T13:02:34.787Z,40
2017-05-10T13:03:35.102Z,40
2017-05-10T13:04:35.195Z,40
2017-05-10T13:05:35.163Z,40
2017-05-10T13:06:35.474Z,40
2017-05-10T13:07:34.934Z,40
2017-05-10T13:08:35.250Z,35
2017-05-10T13:09:35.308Z,35
2017-05-10T13:10:35.307Z,35
2017-05-10T13:11:35.657Z,35
2017-05-10T13:12:35.667Z,35
2017-05-10T13:13:35.097Z,35
2017-05-10T13:14:35.429Z,35
2017-05-10T13:15:35.639Z,35
2017-05-10T13:16:35.179Z,35
2017-05-10T13:17:35.520Z,35
2017-05-10T13:18:35.545Z,35
2017-05-10T13:19:35.479Z,35
2017-05-10T13:20:35.303Z,35
2017-05-10T13:21:35.682Z,30
2017-05-10T13:22:35.672Z,30
2017-05-10T13:23:35.388Z,30
2017-05-10T13:24:36.031Z,30
2017-05-10T13:25:35.456Z,30
2017-05-10T13:26:35.480Z,30
2017-05-10T13:27:35.506Z,30
2017-05-10T13:28:35.538Z,30
2017-05-10T13:29:36.119Z,30
2017-05-10T13:30:35.902Z,30
2017-05-10T13:31:36.235Z,30
2017-05-10T13:32:35.658Z,25
2017-05-10T13:33:35.686Z,25
2017-05-10T13:34:35.717Z,25
2017-05-10T13:35:36.046Z,25
2017-05-10T13:36:36.072Z,25
2017-05-10T13:37:36.412Z,25
2017-05-10T13:38:36.199Z,25
2017-05-10T13:39:36.470Z,25
2017-05-10T13:40:36.802Z,25
2017-05-10T13:41:35.916Z,25
2017-05-10T13:42:36.394Z,25
2017-05-10T13:43:35.983Z,25
2017-05-10T13:44:36.644Z,20
2017-05-10T13:45:36.367Z,20
2017-05-10T13:46:36.673Z,20
2017-05-10T13:47:36.100Z,20
2017-05-10T13:48:36.127Z,20
2017-05-10T13:49:36.872Z,20
2017-05-10T13:50:36.189Z,20
2017-05-10T13:51:36.218Z,20
2017-05-10T13:52:36.248Z,20
2017-05-10T13:53:36.583Z,20
2017-05-10T13:54:36.315Z,20
2017-05-10T13:55:36.355Z,20
2017-05-10T13:56:36.519Z,20
2017-05-10T13:57:36.483Z,20
2017-05-10T13:58:37.020Z,15
2017-05-10T13:59:36.455Z,15
2017-05-10T14:00:36.800Z,15
2017-05-10T14:01:36.816Z,15
2017-05-10T14:02:36.844Z,15
2017-05-10T14:03:36.697Z,15
2017-05-10T14:04:36.902Z,15
2017-05-10T14:05:36.632Z,15
2017-05-10T14:06:36.654Z,15
2017-05-10T14:07:37.000Z,15
2017-05-10T14:08:37.019Z,15
2017-05-10T14:09:36.760Z,15
2017-05-10T14:10:36.951Z,15
2017-05-10T14:11:36.816Z,15
2017-05-10T14:12:37.484Z,15
2017-05-10T14:13:36.871Z,15
2017-05-10T14:14:37.203Z,15
2017-05-10T14:15:37.234Z,15
2017-05-10T14:16:36.958Z,15
2017-05-10T14:17:37.288Z,15
2017-05-10T14:18:37.016Z,15
2017-05-10T14:19:37.357Z,15
2017-05-10T14:20:37.699Z,15
2017-05-10T14:21:37.654Z,15
2017-05-10T14:22:37.442Z,15
2017-05-10T14:23:37.161Z,15
2017-05-10T14:24:37.505Z,15
2017-05-10T14:25:37.843Z,15
2017-05-10T14:26:37.563Z,15
2017-05-10T14:27:37.291Z,15